Newhall, IA (52315)

3:39 PM CDT on August 28, 2015 (GMT -0500)
Ridgeview Estates | | Change Station
CLOSE
Current Station
Personal Weather Station
Location: Atkins, IA
Elevation: 860 ft
Nearby Weather Stations

Elev 860 ft 41.99 °N, 91.85 °W | Updated 29 seconds ago

Overcast
Overcast
68.4 °F
Feels Like 68.4 °F
N
5.5
Wind Variable Wind from SE
Gusts 15.7 mph

Today
High -- | Low -- °F
--% Chance of Precip.
Yesterday
High -- | Low -- °F
Precip. -- in
6:29 AM 7:48 PM
Waxing Gibbous, 99% visible
Pressure 29.96 in
Visibility 10.0 miles
Clouds Few 5500 ft
Scattered Clouds 8500 ft
Mostly Cloudy 11000 ft
Dew Point 62 °F
Humidity 80%
Rainfall 0.04 in
Snow Depth Not available.
UV 4 out of 12
Pollen 2.70 out of 12
Air Quality Not available.
Flu Activity Not available.
METAR KCID 281952Z 13014G23KT 10SM FEW055 SCT085 BKN110 19/17 A2997 RMK AO2 SLP146 T01940167
Pressure 29.96 in
Visibility 10.0 miles
Clouds Few 5500 ft
Scattered Clouds 8500 ft
Mostly Cloudy 11000 ft
Dew Point 62 °F
Humidity 80%
Rainfall 0.04 in
Snow Depth Not available.
UV 4 out of 12
Pollen 2.70 out of 12
Air Quality Not available.
Flu Activity Not available.
METAR KCID 281952Z 13014G23KT 10SM FEW055 SCT085 BKN110 19/17 A2997 RMK AO2 SLP146 T01940167

10-Day Weather Forecast

×

Almanac

Astronomy

Aug. 28, 2015 Rise Set
Actual Time
Civil Twilight
Nautical Twilight
Astronomical Twilight
Moon
Length of Visible Light
Length of Day
Tomorrow will be .
, % of the Moon is Illuminated

Today's Extremes

State Highs State Lows

Community

WunderPhotos

Upload Photos

1,850,476 photos uploaded!

WunderBlogs® & News

Nearby

Air Quality

  Air Quality AQ Index Pollutant
Not available.

Snow Depth

Station Depth Elevation

Earthquake Activity

City Distance Mag. Time & Date
Minimum magnitude displayed is 2.5.

Coastal Water Temperatures

Place Temperature

Stations

Nearby Weather Stations

Station Location Temp. Windchill Dew Point Humidity Wind Precip. Elev Updated Type